Time;durP1;ratioP1;P1;durP2;ratioP2;P2;SDS_P1;SDS_P2;PMS_P1;PMS_P2;Temp;Humidity;BMP_temperature;BMP_pressure;BME280_temperature;BME280_humidity;BME280_pressure;Samples;Min_cycle;Max_cycle;Signal;HPM_P1;HPM_P2
2023/09/17 00:00:20;;;;;;;13.77;10.25;;;;;;;;;;4975748;28;20034;-81
2023/09/17 00:02:46;;;;;;;12.98;10.60;;;;;;;;;;4952815;28;20034;-82
2023/09/17 00:05:11;;;;;;;13.02;10.55;;;;;;;;;;4974504;28;20109;-81
2023/09/17 00:07:36;;;;;;;15.15;11.55;;;;;;;;;;4966480;28;20093;-81
2023/09/17 00:10:03;;;;;;;14.98;10.98;;;;;;;;;;4975173;28;20042;-81
2023/09/17 00:12:28;;;;;;;13.15;10.60;;;;;;;;;;4972214;28;20039;-81
2023/09/17 00:14:53;;;;;;;15.30;11.20;;;;;;;;;;4978008;28;20524;-81
2023/09/17 00:17:19;;;;;;;15.77;10.65;;;;;;;;;;4974961;28;20034;-80
2023/09/17 00:19:44;;;;;;;14.57;11.50;;;;;;;;;;4966976;28;20069;-81
2023/09/17 00:22:14;;;;;;;13.52;10.52;;;;;;;;;;4964591;28;20489;-81
2023/09/17 00:24:40;;;;;;;14.75;10.40;;;;;;;;;;4973872;28;20035;-80
2023/09/17 00:27:06;;;;;;;14.27;10.82;;;;;;;;;;4971945;28;20055;-80
2023/09/17 00:29:31;;;;;;;12.65;10.65;;;;;;;;;;4962598;28;20050;-80
2023/09/17 00:31:56;;;;;;;13.73;10.65;;;;;;;;;;4957419;28;20098;-81
2023/09/17 00:34:22;;;;;;;14.15;10.90;;;;;;;;;;4973476;28;20069;-81
2023/09/17 00:36:47;;;;;;;12.93;10.90;;;;;;;;;;4976266;28;20089;-81
2023/09/17 00:39:13;;;;;;;13.02;10.45;;;;;;;;;;4961031;28;20097;-81
2023/09/17 00:41:38;;;;;;;13.27;10.45;;;;;;;;;;4973811;28;20034;-80
2023/09/17 00:44:04;;;;;;;15.15;10.43;;;;;;;;;;4959590;28;20097;-81
2023/09/17 00:46:33;;;;;;;16.48;10.63;;;;;;;;;;4971988;28;20055;-81
2023/09/17 00:48:59;;;;;;;12.60;10.40;;;;;;;;;;4966627;28;20486;-81
2023/09/17 00:51:25;;;;;;;14.38;10.60;;;;;;;;;;4978643;28;20042;-81
2023/09/17 00:53:52;;;;;;;13.55;10.32;;;;;;;;;;4976105;28;20536;-81
2023/09/17 00:56:18;;;;;;;14.30;10.40;;;;;;;;;;4975268;28;20390;-81
2023/09/17 00:58:44;;;;;;;13.98;10.60;;;;;;;;;;4972505;28;20026;-81
2023/09/17 01:01:14;;;;;;;14.63;11.15;;;;;;;;;;4965490;28;20046;-80
2023/09/17 01:03:40;;;;;;;12.68;10.00;;;;;;;;;;4972743;28;20062;-80
2023/09/17 01:06:08;;;;;;;12.77;10.00;;;;;;;;;;4966511;28;20078;-80
2023/09/17 01:08:33;;;;;;;13.65;10.63;;;;;;;;;;4966607;28;20577;-80
2023/09/17 01:10:59;;;;;;;13.43;9.75;;;;;;;;;;4956813;28;20137;-80
2023/09/17 01:13:24;;;;;;;13.57;10.30;;;;;;;;;;4969479;28;20064;-80
2023/09/17 01:15:54;;;;;;;12.27;9.85;;;;;;;;;;4971921;28;20042;-80
2023/09/17 01:18:21;;;;;;;12.73;10.23;;;;;;;;;;4971879;28;20073;-82
2023/09/17 01:21:00;;;;;;;13.15;10.55;;;;;;;;;;4974120;28;20034;-81
2023/09/17 01:23:47;;;;;;;12.88;10.18;;;;;;;;;;4973690;28;20069;-80
2023/09/17 01:26:26;;;;;;;13.32;9.60;;;;;;;;;;4958841;28;20125;-80
2023/09/17 01:28:54;;;;;;;12.73;10.07;;;;;;;;;;4974028;28;20041;-81
2023/09/17 01:31:20;;;;;;;13.23;10.05;;;;;;;;;;4973318;28;20054;-80
2023/09/17 01:33:46;;;;;;;14.45;10.32;;;;;;;;;;4955815;28;20038;-81
2023/09/17 01:36:28;;;;;;;13.05;11.00;;;;;;;;;;4974997;28;20125;-81
2023/09/17 01:39:06;;;;;;;13.60;10.30;;;;;;;;;;4955692;28;20039;-81
2023/09/17 01:41:33;;;;;;;12.95;10.70;;;;;;;;;;4973591;28;20035;-81
2023/09/17 01:43:59;;;;;;;;;;;;;;;;;;4962963;28;20505;-80
2023/09/17 01:46:25;;;;;;;14.23;10.45;;;;;;;;;;4957016;28;19996;-80
2023/09/17 01:48:51;;;;;;;15.33;10.77;;;;;;;;;;4981701;28;20050;-81
2023/09/17 01:51:16;;;;;;;13.82;10.80;;;;;;;;;;4971866;28;20038;-81
2023/09/17 01:53:43;;;;;;;13.32;10.52;;;;;;;;;;4967110;28;20034;-80
2023/09/17 01:56:08;;;;;;;14.40;10.65;;;;;;;;;;4959764;28;20418;-81
2023/09/17 01:58:33;;;;;;;14.38;10.88;;;;;;;;;;4960421;28;20042;-81
2023/09/17 02:00:59;;;;;;;12.90;10.65;;;;;;;;;;4958744;28;20045;-81
2023/09/17 02:03:25;;;;;;;13.60;11.10;;;;;;;;;;4961871;28;20113;-81
2023/09/17 02:09:12;;;;;;;13.98;11.18;;;;;;;;;;4971131;28;20511;-80
2023/09/17 02:11:38;;;;;;;15.40;11.35;;;;;;;;;;4971831;28;20039;-81
2023/09/17 02:14:04;;;;;;;14.82;11.40;;;;;;;;;;4973589;28;20564;-81
2023/09/17 02:16:31;;;;;;;13.57;10.40;;;;;;;;;;4972456;28;20037;-81
2023/09/17 02:18:57;;;;;;;14.00;10.73;;;;;;;;;;4974570;28;20452;-80
2023/09/17 02:21:23;;;;;;;13.68;10.45;;;;;;;;;;4970842;28;20034;-81
2023/09/17 02:23:48;;;;;;;14.13;11.57;;;;;;;;;;4974287;28;20058;-81
2023/09/17 02:26:14;;;;;;;14.93;11.10;;;;;;;;;;4973607;28;20047;-81
2023/09/17 02:28:41;;;;;;;12.90;10.77;;;;;;;;;;4971743;28;20034;-81
2023/09/17 02:31:06;;;;;;;13.45;10.73;;;;;;;;;;4957813;28;20038;-81
2023/09/17 02:33:32;;;;;;;14.23;11.02;;;;;;;;;;4961435;28;20030;-81
2023/09/17 02:35:58;;;;;;;14.05;11.55;;;;;;;;;;4960484;28;20049;-81
2023/09/17 02:38:23;;;;;;;13.63;11.40;;;;;;;;;;4957422;28;20085;-81
2023/09/17 02:40:49;;;;;;;14.98;11.27;;;;;;;;;;4972220;28;20501;-81
2023/09/17 02:43:14;;;;;;;12.52;10.57;;;;;;;;;;4969270;28;20460;-81
2023/09/17 02:45:40;;;;;;;16.45;11.20;;;;;;;;;;4974574;28;20045;-81
2023/09/17 02:48:06;;;;;;;13.90;10.88;;;;;;;;;;4969928;28;20046;-81
2023/09/17 02:50:31;;;;;;;14.68;11.23;;;;;;;;;;4971133;28;20038;-81
2023/09/17 02:52:57;;;;;;;14.18;11.30;;;;;;;;;;4969271;28;20497;-80
2023/09/17 02:55:22;;;;;;;13.90;11.05;;;;;;;;;;4967804;28;20138;-80
2023/09/17 02:57:49;;;;;;;13.65;11.32;;;;;;;;;;4969309;28;20090;-80
2023/09/17 03:00:17;;;;;;;13.38;11.15;;;;;;;;;;4965187;28;20031;-80
2023/09/17 03:02:47;;;;;;;14.75;11.07;;;;;;;;;;4977002;28;20169;-81
2023/09/17 03:05:14;;;;;;;14.73;10.75;;;;;;;;;;4987466;28;20057;-80
2023/09/17 03:07:40;;;;;;;14.67;11.17;;;;;;;;;;4975018;28;20680;-80
2023/09/17 03:10:10;;;;;;;15.70;11.30;;;;;;;;;;4975733;28;20043;-81
2023/09/17 03:12:36;;;;;;;13.07;10.77;;;;;;;;;;4976135;28;20046;-80
2023/09/17 03:15:02;;;;;;;15.07;11.60;;;;;;;;;;4976404;28;20485;-81
2023/09/17 03:17:27;;;;;;;14.02;11.18;;;;;;;;;;4973145;28;20535;-80
2023/09/17 03:19:52;;;;;;;14.60;11.10;;;;;;;;;;4963743;28;20520;-81
2023/09/17 03:22:18;;;;;;;13.68;10.70;;;;;;;;;;4960745;28;20473;-81
2023/09/17 03:24:43;;;;;;;13.68;11.48;;;;;;;;;;4962720;28;20039;-80
2023/09/17 03:27:08;;;;;;;13.13;10.70;;;;;;;;;;4960942;28;20082;-80
2023/09/17 03:29:34;;;;;;;13.70;11.20;;;;;;;;;;4977082;28;20050;-80
2023/09/17 03:31:59;;;;;;;15.02;10.82;;;;;;;;;;4976330;28;20030;-80
2023/09/17 03:34:25;;;;;;;15.55;11.50;;;;;;;;;;4977459;28;20034;-81
2023/09/17 03:36:50;;;;;;;15.55;12.05;;;;;;;;;;4972944;28;20035;-81
2023/09/17 03:39:16;;;;;;;13.43;10.80;;;;;;;;;;4967579;28;20034;-81
2023/09/17 03:41:41;;;;;;;13.85;10.93;;;;;;;;;;4975768;28;20066;-80
2023/09/17 03:44:09;;;;;;;14.43;11.20;;;;;;;;;;4967895;28;20042;-81
2023/09/17 03:46:36;;;;;;;14.35;10.85;;;;;;;;;;4976118;28;20035;-81
2023/09/17 03:49:02;;;;;;;14.13;11.45;;;;;;;;;;4974480;28;20072;-81
2023/09/17 03:51:28;;;;;;;14.23;11.25;;;;;;;;;;4974403;28;20185;-80
2023/09/17 03:53:55;;;;;;;12.95;11.07;;;;;;;;;;4974101;28;20944;-80
2023/09/17 03:56:20;;;;;;;13.65;11.43;;;;;;;;;;4975128;28;20034;-81
2023/09/17 03:58:47;;;;;;;13.98;11.75;;;;;;;;;;4975618;28;20065;-80
2023/09/17 04:01:14;;;;;;;16.00;11.43;;;;;;;;;;4976166;28;20826;-80
2023/09/17 04:03:39;;;;;;;14.60;11.63;;;;;;;;;;4975011;28;20401;-81
2023/09/17 04:06:05;;;;;;;15.98;11.63;;;;;;;;;;4986965;28;20042;-81
2023/09/17 04:08:30;;;;;;;16.27;12.07;;;;;;;;;;4967692;28;20117;-81
2023/09/17 04:10:56;;;;;;;12.90;11.13;;;;;;;;;;4975629;28;20038;-81
2023/09/17 04:13:21;;;;;;;14.77;11.20;;;;;;;;;;4962158;28;20037;-81
2023/09/17 04:15:48;;;;;;;15.40;11.73;;;;;;;;;;4974522;28;20045;-80
2023/09/17 04:18:14;;;;;;;14.48;11.05;;;;;;;;;;4967914;28;20130;-80
2023/09/17 04:20:39;;;;;;;12.10;10.63;;;;;;;;;;4967051;28;20165;-80
2023/09/17 04:23:06;;;;;;;14.05;11.43;;;;;;;;;;4974739;28;20441;-81
2023/09/17 04:25:32;;;;;;;13.75;10.95;;;;;;;;;;4973091;28;20474;-80
2023/09/17 04:27:58;;;;;;;14.35;10.77;;;;;;;;;;4974484;28;20042;-80
2023/09/17 04:30:23;;;;;;;12.73;10.65;;;;;;;;;;4978401;28;20035;-81
2023/09/17 04:32:51;;;;;;;13.60;11.10;;;;;;;;;;4976411;28;20038;-81
2023/09/17 04:35:17;;;;;;;12.38;10.50;;;;;;;;;;4977465;28;20041;-80
2023/09/17 04:37:44;;;;;;;14.75;11.68;;;;;;;;;;4973175;28;20129;-82
2023/09/17 04:40:12;;;;;;;13.90;10.25;;;;;;;;;;4971891;28;20517;-80
2023/09/17 04:42:40;;;;;;;12.75;10.65;;;;;;;;;;4972720;28;20042;-80
2023/09/17 04:45:09;;;;;;;14.07;10.75;;;;;;;;;;4961954;28;20039;-79
2023/09/17 04:47:35;;;;;;;14.80;10.73;;;;;;;;;;4972712;28;20553;-80
2023/09/17 04:50:02;;;;;;;15.52;11.40;;;;;;;;;;4975741;28;20095;-81
2023/09/17 04:52:27;;;;;;;14.25;10.80;;;;;;;;;;4972086;28;20039;-80
2023/09/17 04:54:53;;;;;;;13.95;10.88;;;;;;;;;;4960907;28;20038;-80
2023/09/17 04:57:18;;;;;;;13.90;10.88;;;;;;;;;;4971159;28;20034;-80
2023/09/17 04:59:44;;;;;;;15.40;11.70;;;;;;;;;;4975784;28;20035;-81
2023/09/17 05:02:10;;;;;;;13.85;11.38;;;;;;;;;;4973775;28;20930;-80
2023/09/17 05:04:35;;;;;;;13.10;10.80;;;;;;;;;;4972863;28;20477;-81
2023/09/17 05:07:16;;;;;;;14.88;11.38;;;;;;;;;;4961743;28;20070;-81
2023/09/17 05:09:41;;;;;;;14.30;11.43;;;;;;;;;;4963546;28;20049;-81
2023/09/17 05:12:08;;;;;;;15.13;11.75;;;;;;;;;;4973657;28;20039;-81
2023/09/17 05:14:34;;;;;;;15.07;12.17;;;;;;;;;;4972252;28;20054;-82
2023/09/17 05:16:59;;;;;;;13.27;10.90;;;;;;;;;;4981273;28;20660;-81
2023/09/17 05:19:25;;;;;;;15.75;11.35;;;;;;;;;;4960937;28;20034;-81
2023/09/17 05:21:51;;;;;;;13.32;11.18;;;;;;;;;;4981836;28;20046;-82
2023/09/17 05:24:17;;;;;;;13.80;11.27;;;;;;;;;;4974618;28;20045;-81
2023/09/17 05:26:42;;;;;;;13.13;11.10;;;;;;;;;;4959517;28;20371;-82
2023/09/17 05:29:10;;;;;;;15.15;11.68;;;;;;;;;;4973435;28;20042;-82
2023/09/17 05:31:36;;;;;;;17.88;12.15;;;;;;;;;;4967045;28;20190;-81
2023/09/17 05:34:02;;;;;;;14.25;10.82;;;;;;;;;;4964722;28;20114;-82
2023/09/17 05:36:28;;;;;;;12.07;10.10;;;;;;;;;;4974373;28;20038;-81
2023/09/17 05:38:53;;;;;;;13.52;11.10;;;;;;;;;;4968007;28;20481;-81
2023/09/17 05:41:18;;;;;;;15.15;11.57;;;;;;;;;;4971787;28;20034;-81
2023/09/17 05:43:45;;;;;;;13.27;10.70;;;;;;;;;;4958059;28;20045;-81
2023/09/17 05:46:11;;;;;;;13.83;10.83;;;;;;;;;;4950727;28;20037;-81
2023/09/17 05:48:36;;;;;;;14.10;11.00;;;;;;;;;;4981673;28;20038;-82
2023/09/17 05:51:03;;;;;;;15.60;11.32;;;;;;;;;;4964636;28;20080;-81
2023/09/17 05:53:30;;;;;;;12.53;10.43;;;;;;;;;;4969994;28;20031;-81
2023/09/17 05:55:56;;;;;;;12.30;10.25;;;;;;;;;;4973493;28;20417;-82
2023/09/17 05:58:21;;;;;;;15.68;11.20;;;;;;;;;;4966428;28;20038;-82
2023/09/17 06:00:47;;;;;;;12.70;10.95;;;;;;;;;;4974405;28;20128;-82
2023/09/17 06:03:12;;;;;;;15.82;11.52;;;;;;;;;;4966665;28;20038;-82
2023/09/17 06:05:40;;;;;;;17.10;11.73;;;;;;;;;;4954325;28;20112;-81
2023/09/17 06:08:05;;;;;;;14.68;11.65;;;;;;;;;;4955240;28;20050;-82
2023/09/17 06:10:31;;;;;;;14.48;11.15;;;;;;;;;;4975519;28;20490;-82
2023/09/17 06:12:56;;;;;;;14.25;12.02;;;;;;;;;;4973895;28;20396;-82
2023/09/17 06:15:21;;;;;;;15.20;12.13;;;;;;;;;;4973361;28;20046;-81
2023/09/17 06:17:50;;;;;;;13.57;11.57;;;;;;;;;;4973239;28;20046;-81
2023/09/17 06:20:15;;;;;;;13.35;11.48;;;;;;;;;;4974769;28;20050;-81
2023/09/17 06:22:41;;;;;;;13.48;11.98;;;;;;;;;;4960570;28;20042;-80
2023/09/17 06:25:07;;;;;;;14.32;11.80;;;;;;;;;;4962754;28;20046;-82
2023/09/17 06:27:38;;;;;;;15.25;12.35;;;;;;;;;;4975344;28;20752;-82
2023/09/17 06:30:05;;;;;;;15.45;12.43;;;;;;;;;;4970373;28;20046;-82
2023/09/17 06:32:30;;;;;;;14.32;11.68;;;;;;;;;;4958877;28;20034;-83
2023/09/17 06:34:56;;;;;;;13.60;11.63;;;;;;;;;;4977241;28;20042;-84
2023/09/17 06:37:21;;;;;;;12.57;10.95;;;;;;;;;;4975966;28;20038;-82
2023/09/17 06:39:47;;;;;;;13.93;10.88;;;;;;;;;;4962883;28;20031;-83
2023/09/17 06:42:15;;;;;;;15.35;11.60;;;;;;;;;;4965511;28;20390;-81
2023/09/17 06:44:40;;;;;;;13.93;11.07;;;;;;;;;;4977469;28;20042;-81
2023/09/17 06:47:06;;;;;;;14.43;11.30;;;;;;;;;;4976418;28;20395;-82
2023/09/17 06:49:31;;;;;;;13.25;10.70;;;;;;;;;;4976603;28;20031;-82
2023/09/17 06:51:56;;;;;;;13.40;10.02;;;;;;;;;;4961896;28;20054;-81
2023/09/17 06:54:22;;;;;;;11.95;9.43;;;;;;;;;;4978806;28;20045;-82
2023/09/17 06:56:47;;;;;;;13.27;10.20;;;;;;;;;;4975861;28;20054;-82
2023/09/17 06:59:13;;;;;;;13.30;9.45;;;;;;;;;;4961209;28;20385;-81
2023/09/17 07:01:43;;;;;;;11.07;9.15;;;;;;;;;;4976348;28;20045;-82
2023/09/17 07:04:08;;;;;;;11.13;8.27;;;;;;;;;;4969178;28;20542;-82
2023/09/17 07:06:37;;;;;;;11.50;9.80;;;;;;;;;;4962866;28;20386;-82
2023/09/17 07:09:03;;;;;;;12.13;9.40;;;;;;;;;;4961262;28;20050;-82
2023/09/17 07:11:29;;;;;;;12.68;10.18;;;;;;;;;;4977788;28;20126;-82
2023/09/17 07:13:55;;;;;;;17.42;9.57;;;;;;;;;;4980620;28;20059;-81
2023/09/17 07:16:23;;;;;;;10.77;8.68;;;;;;;;;;4976528;28;20909;-80
2023/09/17 07:18:51;;;;;;;12.15;9.95;;;;;;;;;;4960948;28;20061;-80
2023/09/17 07:21:17;;;;;;;11.85;9.35;;;;;;;;;;4958513;28;20147;-81
2023/09/17 07:23:42;;;;;;;12.73;8.88;;;;;;;;;;4975349;28;20058;-80
2023/09/17 07:26:09;;;;;;;11.88;8.95;;;;;;;;;;4975103;28;20531;-80
2023/09/17 07:28:35;;;;;;;10.43;8.57;;;;;;;;;;4978726;28;20729;-80
2023/09/17 07:31:01;;;;;;;11.88;8.90;;;;;;;;;;4984390;28;20077;-80
2023/09/17 07:33:26;;;;;;;10.32;8.50;;;;;;;;;;4977837;28;20038;-81
2023/09/17 07:35:52;;;;;;;11.25;8.35;;;;;;;;;;4980935;28;20031;-81
2023/09/17 07:38:18;;;;;;;11.20;8.32;;;;;;;;;;4957072;28;20037;-80
2023/09/17 07:40:44;;;;;;;11.13;8.20;;;;;;;;;;4974818;28;20041;-81
2023/09/17 07:43:10;;;;;;;10.63;7.90;;;;;;;;;;4976566;28;20372;-80
2023/09/17 07:45:36;;;;;;;10.30;8.07;;;;;;;;;;4977214;28;20049;-80
2023/09/17 07:48:03;;;;;;;9.52;7.68;;;;;;;;;;4973847;28;20050;-80
2023/09/17 07:50:28;;;;;;;10.07;7.72;;;;;;;;;;4975297;28;20034;-79
2023/09/17 07:53:08;;;;;;;9.20;7.35;;;;;;;;;;4954272;28;20503;-87
2023/09/17 07:55:52;;;;;;;8.80;6.82;;;;;;;;;;4948555;28;20085;-86
2023/09/17 07:58:23;;;;;;;8.77;6.40;;;;;;;;;;4957761;28;20074;-87
2023/09/17 08:00:53;;;;;;;8.95;6.72;;;;;;;;;;4957045;28;20050;-83
2023/09/17 08:03:19;;;;;;;8.98;6.95;;;;;;;;;;4958668;28;20030;-82
2023/09/17 08:05:45;;;;;;;9.23;7.22;;;;;;;;;;4971525;28;20514;-83
2023/09/17 08:08:11;;;;;;;8.35;6.95;;;;;;;;;;4971607;28;20058;-81
2023/09/17 08:10:37;;;;;;;9.00;6.55;;;;;;;;;;4975319;28;20039;-81
2023/09/17 08:13:03;;;;;;;8.82;6.57;;;;;;;;;;4972379;28;20058;-81
2023/09/17 08:15:29;;;;;;;9.02;7.00;;;;;;;;;;4962385;28;20050;-81
2023/09/17 08:17:56;;;;;;;8.35;6.25;;;;;;;;;;4972646;28;20046;-81
2023/09/17 08:20:22;;;;;;;7.45;5.85;;;;;;;;;;4976651;28;20030;-81
2023/09/17 08:22:51;;;;;;;9.93;6.25;;;;;;;;;;4973792;28;20054;-82
2023/09/17 08:25:17;;;;;;;9.65;6.43;;;;;;;;;;4972732;28;20035;-81
2023/09/17 08:27:44;;;;;;;8.35;6.63;;;;;;;;;;4987120;28;20049;-81
2023/09/17 08:30:11;;;;;;;8.38;5.95;;;;;;;;;;4975698;28;20046;-81
2023/09/17 08:32:41;;;;;;;8.05;5.57;;;;;;;;;;4973463;28;20039;-82
2023/09/17 08:35:07;;;;;;;8.27;6.47;;;;;;;;;;4976568;28;20817;-81
2023/09/17 08:37:37;;;;;;;7.45;5.55;;;;;;;;;;4965933;28;20038;-81
2023/09/17 08:40:10;;;;;;;7.30;5.43;;;;;;;;;;4967123;28;20756;-82
2023/09/17 08:42:38;;;;;;;7.35;5.18;;;;;;;;;;4974346;28;20405;-81
2023/09/17 08:45:05;;;;;;;7.22;4.80;;;;;;;;;;4975208;28;20089;-81
2023/09/17 08:47:31;;;;;;;7.05;5.00;;;;;;;;;;4959763;28;20042;-81
2023/09/17 08:49:56;;;;;;;6.00;4.70;;;;;;;;;;4958674;28;20421;-81
2023/09/17 08:52:22;;;;;;;6.88;4.60;;;;;;;;;;4970952;28;20046;-82
2023/09/17 08:54:48;;;;;;;8.40;4.55;;;;;;;;;;4973679;28;20046;-82
2023/09/17 08:57:14;;;;;;;7.70;5.67;;;;;;;;;;4958797;28;20030;-82
2023/09/17 08:59:45;;;;;;;6.30;4.78;;;;;;;;;;4966522;28;20034;-82
2023/09/17 09:02:31;;;;;;;6.15;4.28;;;;;;;;;;4989704;28;20035;-83
2023/09/17 09:04:57;;;;;;;;;;;;;;;;;;4961773;28;20038;-82
2023/09/17 09:07:22;;;;;;;6.20;4.00;;;;;;;;;;4959014;28;19925;-82
2023/09/17 09:09:51;;;;;;;4.83;3.97;;;;;;;;;;4973367;28;20035;-82
2023/09/17 09:12:18;;;;;;;6.00;3.85;;;;;;;;;;4975194;28;20042;-82
2023/09/17 09:14:44;;;;;;;5.72;4.00;;;;;;;;;;4974179;28;20042;-82
2023/09/17 09:17:10;;;;;;;4.93;3.55;;;;;;;;;;4957819;28;20047;-82
2023/09/17 09:19:36;;;;;;;4.57;3.72;;;;;;;;;;4965845;28;20069;-82
2023/09/17 09:22:02;;;;;;;5.17;3.70;;;;;;;;;;4972184;28;20097;-82
2023/09/17 09:24:44;;;;;;;5.22;3.63;;;;;;;;;;4975539;28;20056;-81
2023/09/17 09:27:09;;;;;;;6.45;3.35;;;;;;;;;;4971650;28;20620;-81
2023/09/17 09:29:35;;;;;;;5.47;3.90;;;;;;;;;;4970966;28;20081;-81
2023/09/17 09:32:00;;;;;;;4.97;3.67;;;;;;;;;;4975172;28;20118;-81
2023/09/17 09:34:27;;;;;;;5.37;3.80;;;;;;;;;;4970492;28;20393;-82
2023/09/17 09:36:54;;;;;;;5.15;3.60;;;;;;;;;;4959521;28;20481;-81
2023/09/17 09:39:20;;;;;;;5.63;3.78;;;;;;;;;;4975405;28;20389;-81
2023/09/17 09:41:46;;;;;;;6.85;3.80;;;;;;;;;;4958891;28;20131;-81
2023/09/17 09:44:12;;;;;;;5.90;4.35;;;;;;;;;;4972006;28;20150;-81
2023/09/17 09:46:37;;;;;;;6.22;4.30;;;;;;;;;;4971384;28;20162;-81
2023/09/17 09:49:03;;;;;;;7.25;4.65;;;;;;;;;;4975490;28;20615;-82
2023/09/17 09:51:35;;;;;;;5.70;4.63;;;;;;;;;;4966229;28;20022;-81
2023/09/17 09:54:01;;;;;;;5.80;4.45;;;;;;;;;;4965837;28;20066;-81
2023/09/17 09:56:27;;;;;;;5.40;4.32;;;;;;;;;;4973629;28;20034;-80
2023/09/17 09:59:00;;;;;;;7.95;4.53;;;;;;;;;;4975491;28;20875;-82
2023/09/17 10:01:25;;;;;;;7.05;5.15;;;;;;;;;;4978168;28;20097;-81
2023/09/17 10:03:57;;;;;;;6.85;4.90;;;;;;;;;;4986967;28;20027;-81
2023/09/17 10:06:23;;;;;;;7.57;5.28;;;;;;;;;;4977409;28;20494;-81
2023/09/17 10:08:48;;;;;;;6.05;4.90;;;;;;;;;;4964481;28;20049;-82
2023/09/17 10:11:15;;;;;;;8.55;5.03;;;;;;;;;;4961457;28;20117;-80
2023/09/17 10:13:42;;;;;;;6.07;4.45;;;;;;;;;;4978083;28;20121;-81
2023/09/17 10:16:07;;;;;;;6.18;4.65;;;;;;;;;;4962020;28;20402;-81
2023/09/17 10:18:36;;;;;;;8.25;4.63;;;;;;;;;;4963691;28;20060;-81
2023/09/17 10:21:02;;;;;;;5.80;4.75;;;;;;;;;;4964644;28;20035;-81
2023/09/17 10:23:29;;;;;;;7.00;4.80;;;;;;;;;;4985801;28;20049;-81
2023/09/17 10:25:57;;;;;;;7.55;4.65;;;;;;;;;;4980407;28;20034;-82
2023/09/17 10:28:24;;;;;;;6.32;4.35;;;;;;;;;;4978160;28;20057;-81
2023/09/17 10:30:51;;;;;;;6.05;4.53;;;;;;;;;;4958420;28;20117;-82
2023/09/17 10:33:17;;;;;;;5.97;4.22;;;;;;;;;;4974150;28;20045;-83
2023/09/17 10:35:45;;;;;;;5.05;3.90;;;;;;;;;;4977580;28;20596;-82
2023/09/17 10:38:11;;;;;;;7.35;4.30;;;;;;;;;;4954271;28;20050;-82
2023/09/17 10:40:41;;;;;;;8.52;4.03;;;;;;;;;;4970029;28;20381;-82
2023/09/17 10:43:07;;;;;;;5.20;3.95;;;;;;;;;;4984666;28;20045;-81
2023/09/17 10:45:47;;;;;;;6.82;4.10;;;;;;;;;;4975367;28;20045;-87
2023/09/17 10:48:24;;;;;;;4.72;3.25;;;;;;;;;;4961793;28;20049;-89
2023/09/17 10:50:52;;;;;;;5.13;3.50;;;;;;;;;;4973851;28;20165;-89
2023/09/17 10:53:32;;;;;;;5.72;3.45;;;;;;;;;;4964024;28;20497;-88
2023/09/17 10:56:54;;;;;;;4.95;3.08;;;;;;;;;;4962365;28;20090;-92
2023/09/17 11:03:01;;;;;;;6.78;3.10;;;;;;;;;;4864912;29;20131;-89
2023/09/17 11:05:31;;;;;;;3.70;2.50;;;;;;;;;;4882918;29;20056;-89
2023/09/17 11:08:02;;;;;;;5.00;2.60;;;;;;;;;;4837832;29;20049;-85
2023/09/17 11:10:33;;;;;;;8.25;3.20;;;;;;;;;;4853275;29;20062;-84
2023/09/17 11:12:59;;;;;;;4.50;2.47;;;;;;;;;;4864680;29;20107;-82
2023/09/17 11:15:25;;;;;;;3.88;2.80;;;;;;;;;;4864151;29;20032;-83
2023/09/17 11:17:58;;;;;;;3.57;2.40;;;;;;;;;;4866373;29;20043;-83
2023/09/17 11:20:23;;;;;;;4.72;2.45;;;;;;;;;;4865910;29;20377;-84
2023/09/17 11:23:02;;;;;;;4.90;2.60;;;;;;;;;;4865483;29;20044;-85
2023/09/17 11:25:36;;;;;;;4.32;2.50;;;;;;;;;;4874386;29;20060;-84
2023/09/17 11:28:09;;;;;;;4.00;2.40;;;;;;;;;;4872717;29;20197;-82
2023/09/17 11:30:55;;;;;;;3.63;2.40;;;;;;;;;;4882908;29;20064;-82
2023/09/17 11:33:25;;;;;;;4.22;2.20;;;;;;;;;;4871530;29;20044;-81
2023/09/17 11:35:53;;;;;;;3.85;2.30;;;;;;;;;;4856722;29;20121;-82
2023/09/17 11:38:23;;;;;;;3.85;1.90;;;;;;;;;;4870221;28;20064;-83
2023/09/17 11:41:07;;;;;;;3.25;1.95;;;;;;;;;;4972545;28;20034;-84
2023/09/17 11:43:43;;;;;;;3.50;2.08;;;;;;;;;;4964907;28;20054;-82
2023/09/17 11:46:10;;;;;;;3.55;2.25;;;;;;;;;;4961170;28;20074;-83
2023/09/17 11:48:36;;;;;;;3.30;2.10;;;;;;;;;;4974461;28;20039;-84
2023/09/17 11:51:25;;;;;;;4.03;2.05;;;;;;;;;;4976025;28;20034;-83
2023/09/17 11:54:05;;;;;;;5.00;2.17;;;;;;;;;;4969667;28;20138;-84
2023/09/17 11:56:55;;;;;;;3.58;2.30;;;;;;;;;;4973117;28;20120;-85
2023/09/17 11:59:22;;;;;;;3.50;2.30;;;;;;;;;;4972892;28;20081;-84
2023/09/17 12:01:54;;;;;;;3.40;2.17;;;;;;;;;;4956743;28;20054;-84
2023/09/17 12:04:25;;;;;;;3.88;2.40;;;;;;;;;;4977303;28;20413;-84
2023/09/17 12:06:53;;;;;;;3.40;2.50;;;;;;;;;;4953885;28;20658;-84
2023/09/17 12:12:20;;;;;;;3.80;2.33;;;;;;;;;;4984749;28;20042;-84
2023/09/17 12:17:36;;;;;;;3.72;2.63;;;;;;;;;;4971245;28;20076;-85
2023/09/17 12:20:30;;;;;;;4.60;2.58;;;;;;;;;;4969067;28;20153;-85
2023/09/17 12:23:06;;;;;;;3.40;2.33;;;;;;;;;;4992520;28;20128;-85
2023/09/17 12:25:44;;;;;;;4.00;2.80;;;;;;;;;;4948510;28;20552;-84
2023/09/17 12:28:12;;;;;;;17.42;13.63;;;;;;;;;;4942601;28;20076;-84
2023/09/17 12:30:38;;;;;;;8.65;7.10;;;;;;;;;;4983093;28;20711;-84
2023/09/17 12:33:04;;;;;;;7.55;5.80;;;;;;;;;;4944450;28;20117;-85
2023/09/17 12:35:30;;;;;;;5.10;3.25;;;;;;;;;;4968900;28;20038;-85
2023/09/17 12:37:57;;;;;;;6.60;4.10;;;;;;;;;;4968898;28;20589;-86
2023/09/17 12:40:22;;;;;;;;;;;;;;;;;;4966720;28;20072;-86
2023/09/17 12:42:53;;;;;;;4.78;2.97;;;;;;;;;;4952842;28;20392;-86
2023/09/17 12:45:23;;;;;;;6.10;3.40;;;;;;;;;;4967118;28;20080;-84
2023/09/17 12:47:54;;;;;;;4.47;2.88;;;;;;;;;;4979060;28;20049;-84
2023/09/17 12:50:22;;;;;;;4.80;2.78;;;;;;;;;;4966900;28;20038;-84
2023/09/17 12:52:48;;;;;;;3.85;2.50;;;;;;;;;;4965290;28;20031;-85
2023/09/17 12:55:14;;;;;;;5.38;2.60;;;;;;;;;;4955548;28;20493;-85
2023/09/17 12:57:40;;;;;;;4.25;2.60;;;;;;;;;;4960455;28;20125;-86
2023/09/17 13:00:07;;;;;;;3.50;2.60;;;;;;;;;;4959102;28;20062;-85
2023/09/17 13:02:32;;;;;;;4.20;2.70;;;;;;;;;;4972167;28;20497;-85
2023/09/17 13:04:58;;;;;;;4.70;2.88;;;;;;;;;;4965594;28;20038;-84
2023/09/17 13:07:26;;;;;;;5.03;2.75;;;;;;;;;;4963419;28;20030;-85
2023/09/17 13:09:58;;;;;;;3.83;2.40;;;;;;;;;;4968063;28;20133;-87
2023/09/17 13:12:24;;;;;;;5.20;2.90;;;;;;;;;;4966017;28;20043;-85
2023/09/17 13:14:54;;;;;;;5.32;3.10;;;;;;;;;;4974804;28;20035;-86
2023/09/17 13:17:21;;;;;;;4.22;2.85;;;;;;;;;;4949464;28;20046;-86
2023/09/17 13:19:49;;;;;;;7.25;3.35;;;;;;;;;;4954129;28;20556;-85
2023/09/17 13:22:16;;;;;;;4.07;2.58;;;;;;;;;;4947949;28;20038;-85
2023/09/17 13:24:46;;;;;;;3.53;2.40;;;;;;;;;;4974423;28;20081;-85
2023/09/17 13:27:15;;;;;;;3.30;2.25;;;;;;;;;;4974472;28;20121;-85
2023/09/17 13:29:41;;;;;;;3.50;2.13;;;;;;;;;;4967566;28;20077;-86
2023/09/17 13:32:09;;;;;;;3.80;2.70;;;;;;;;;;4956869;28;20066;-86
2023/09/17 13:34:37;;;;;;;4.13;2.90;;;;;;;;;;4977577;28;20042;-86
2023/09/17 13:37:06;;;;;;;5.05;3.33;;;;;;;;;;4964211;28;20512;-86
2023/09/17 13:39:31;;;;;;;4.07;2.63;;;;;;;;;;4959609;28;20046;-86
2023/09/17 13:41:57;;;;;;;4.55;2.40;;;;;;;;;;4969898;28;20051;-85
2023/09/17 13:44:22;;;;;;;3.75;2.30;;;;;;;;;;4963064;28;20042;-86
2023/09/17 13:46:48;;;;;;;4.90;2.60;;;;;;;;;;4972608;28;20093;-86
2023/09/17 13:49:14;;;;;;;3.50;2.25;;;;;;;;;;4971611;28;20110;-85
2023/09/17 13:51:41;;;;;;;4.60;2.38;;;;;;;;;;4976141;28;20138;-85
2023/09/17 13:54:12;;;;;;;3.80;2.33;;;;;;;;;;4972631;28;20035;-87
2023/09/17 13:56:37;;;;;;;3.65;2.53;;;;;;;;;;4958550;28;20457;-87
2023/09/17 13:59:06;;;;;;;5.13;2.50;;;;;;;;;;4972886;28;20035;-83
2023/09/17 14:01:32;;;;;;;4.03;2.58;;;;;;;;;;4958255;28;20045;-82
2023/09/17 14:03:57;;;;;;;4.78;2.55;;;;;;;;;;4959028;28;20035;-82
2023/09/17 14:06:23;;;;;;;6.05;2.90;;;;;;;;;;4976902;28;20097;-84
2023/09/17 14:08:48;;;;;;;3.92;2.50;;;;;;;;;;4963402;28;20042;-91
2023/09/17 14:11:13;;;;;;;5.05;2.70;;;;;;;;;;4974207;28;20039;-86
2023/09/17 14:13:45;;;;;;;4.05;2.50;;;;;;;;;;4972077;28;20085;-84
2023/09/17 14:16:10;;;;;;;3.95;2.60;;;;;;;;;;4961281;28;20134;-85
2023/09/17 14:18:45;;;;;;;4.65;2.80;;;;;;;;;;4946712;28;20125;-84
2023/09/17 14:21:11;;;;;;;5.35;2.92;;;;;;;;;;4960805;28;20038;-86
2023/09/17 14:23:36;;;;;;;4.10;2.60;;;;;;;;;;4957930;28;20097;-85
2023/09/17 14:26:02;;;;;;;3.95;2.90;;;;;;;;;;4959860;28;20038;-85
2023/09/17 14:28:28;;;;;;;4.05;2.38;;;;;;;;;;4967543;28;20097;-85
2023/09/17 14:30:56;;;;;;;3.97;2.50;;;;;;;;;;4960033;28;20545;-85
2023/09/17 14:33:22;;;;;;;5.35;2.50;;;;;;;;;;4947087;28;20094;-85
2023/09/17 14:35:48;;;;;;;3.63;2.38;;;;;;;;;;4963580;28;20038;-85
2023/09/17 14:38:13;;;;;;;4.43;2.15;;;;;;;;;;4950205;28;20070;-86
2023/09/17 14:40:42;;;;;;;3.95;2.30;;;;;;;;;;4953211;28;20689;-86
2023/09/17 14:43:07;;;;;;;3.95;2.20;;;;;;;;;;4950297;28;20041;-87
2023/09/17 14:45:44;;;;;;;3.70;2.40;;;;;;;;;;4971329;28;20218;-85